Time;durP1;ratioP1;P1;durP2;ratioP2;P2;SDS_P1;SDS_P2;PMS_P1;PMS_P2;Temp;Humidity;BMP_temperature;BMP_pressure;BME280_temperature;BME280_humidity;BME280_pressure;Samples;Min_cycle;Max_cycle;Signal;HPM_P1;HPM_P2
2021/06/05 00:01:51;;;;;;;10.63;7.68;;;;;;;14.08;nan;102200.75;5032897;28;20028;-73
2021/06/05 00:04:18;;;;;;;10.45;7.93;;;;;;;14.09;nan;102190.78;5034905;28;20544;-75
2021/06/05 00:06:43;;;;;;;11.63;8.15;;;;;;;14.00;nan;102200.28;5017313;28;20029;-74
2021/06/05 00:09:10;;;;;;;8.82;6.72;;;;;;;13.89;nan;102199.25;5024329;28;20427;-73
2021/06/05 00:11:36;;;;;;;9.07;7.90;;;;;;;13.84;nan;102201.81;5037361;28;20090;-73
2021/06/05 00:14:05;;;;;;;10.20;8.18;;;;;;;13.82;nan;102202.06;5035253;28;20056;-73
2021/06/05 00:16:45;;;;;;;9.20;7.50;;;;;;;13.76;nan;102194.91;5037467;28;20032;-73
2021/06/05 00:19:16;;;;;;;10.35;8.02;;;;;;;13.72;nan;102199.13;5032784;28;20950;-73
2021/06/05 00:21:43;;;;;;;11.07;8.32;;;;;;;13.68;nan;102191.75;5032146;28;20029;-73
2021/06/05 00:24:09;;;;;;;11.32;7.32;;;;;;;13.57;nan;102187.97;5023700;28;20642;-73
2021/06/05 00:26:35;;;;;;;10.13;7.38;;;;;;;13.49;nan;102186.47;5030528;28;20029;-73
2021/06/05 00:29:01;;;;;;;8.57;7.28;;;;;;;13.44;nan;102186.31;5024590;28;20024;-73
2021/06/05 00:31:27;;;;;;;10.85;8.15;;;;;;;13.42;nan;102182.22;5028185;28;20083;-73
2021/06/05 00:33:53;;;;;;;12.50;9.23;;;;;;;13.30;nan;102187.59;5014616;28;20025;-73
2021/06/05 00:36:19;;;;;;;11.45;10.07;;;;;;;13.27;nan;102182.66;5031482;28;20025;-73
2021/06/05 00:38:45;;;;;;;17.73;11.18;;;;;;;13.26;nan;102181.84;5029741;28;20033;-73
2021/06/05 00:41:13;;;;;;;16.88;12.27;;;;;;;13.23;nan;102181.47;5030381;28;20021;-73
2021/06/05 00:43:42;;;;;;;18.33;13.15;;;;;;;13.18;nan;102179.50;5035007;28;20202;-73
2021/06/05 00:46:08;;;;;;;18.83;14.70;;;;;;;12.96;nan;102181.03;5039021;28;20032;-73
2021/06/05 00:48:34;;;;;;;17.15;13.38;;;;;;;13.08;nan;102189.13;5038457;28;20487;-73
2021/06/05 00:51:36;;;;;;;23.48;13.98;;;;;;;13.10;nan;102187.84;5041785;28;20044;-74
2021/06/05 00:54:02;;;;;;;14.93;12.02;;;;;;;13.23;nan;102186.88;5034898;28;20855;-73
2021/06/05 00:56:28;;;;;;;18.23;12.63;;;;;;;13.29;nan;102177.88;5022696;28;20036;-73
2021/06/05 00:58:54;;;;;;;13.68;11.85;;;;;;;13.24;nan;102175.88;5034040;28;20495;-73
2021/06/05 01:01:24;;;;;;;17.38;12.48;;;;;;;13.17;nan;102183.19;5037769;28;20025;-73
2021/06/05 01:03:52;;;;;;;15.38;12.23;;;;;;;13.22;nan;102186.03;5020436;28;20021;-73
2021/06/05 01:06:37;;;;;;;13.55;10.95;;;;;;;13.13;nan;102191.97;5016977;28;20024;-73
2021/06/05 01:09:13;;;;;;;14.23;10.65;;;;;;;13.14;nan;102186.34;5039246;28;21263;-73
2021/06/05 01:11:57;;;;;;;14.90;11.07;;;;;;;13.03;nan;102184.44;5021568;28;20047;-73
2021/06/05 01:14:34;;;;;;;12.60;10.23;;;;;;;12.99;nan;102176.00;5030183;28;20029;-73
2021/06/05 01:17:11;;;;;;;16.25;11.20;;;;;;;12.93;nan;102187.69;5018993;28;20111;-73
2021/06/05 01:19:58;;;;;;;12.90;8.88;;;;;;;12.86;nan;102178.88;5027887;28;20040;-73
2021/06/05 01:22:52;;;;;;;15.73;8.55;;;;;;;12.78;nan;102175.72;5016456;28;20025;-73
2021/06/05 01:25:40;;;;;;;10.23;7.70;;;;;;;12.70;nan;102179.50;5033080;28;20380;-73
2021/06/05 01:28:12;;;;;;;36.58;9.60;;;;;;;12.64;nan;102177.75;5032969;28;20017;-73
2021/06/05 01:30:42;;;;;;;17.05;8.02;;;;;;;12.53;nan;102175.81;5020016;28;20029;-73
2021/06/05 01:33:07;;;;;;;15.52;7.45;;;;;;;12.47;nan;102169.47;5037607;28;20108;-73
2021/06/05 01:35:34;;;;;;;10.43;8.18;;;;;;;12.39;nan;102173.31;5035074;28;20640;-73
2021/06/05 01:38:03;;;;;;;10.75;8.25;;;;;;;12.30;nan;102163.88;5023724;28;20056;-73
2021/06/05 01:40:31;;;;;;;17.33;11.50;;;;;;;12.25;nan;102177.19;5022631;28;20487;-73
2021/06/05 01:42:59;;;;;;;11.32;8.90;;;;;;;12.28;nan;102178.59;5033973;28;20057;-73
2021/06/05 01:45:28;;;;;;;12.55;9.68;;;;;;;12.25;nan;102176.38;5033671;28;20480;-73
2021/06/05 01:47:55;;;;;;;11.75;10.05;;;;;;;12.23;nan;102167.72;5021994;28;20025;-73
2021/06/05 01:50:24;;;;;;;14.95;9.93;;;;;;;12.19;nan;102164.63;5031199;28;20116;-73
2021/06/05 01:52:52;;;;;;;14.48;11.25;;;;;;;12.18;nan;102157.63;5021443;28;20057;-73
2021/06/05 01:55:28;;;;;;;16.15;11.70;;;;;;;12.14;nan;102161.81;5025291;28;20021;-73
2021/06/05 01:57:57;;;;;;;13.75;12.00;;;;;;;12.14;nan;102161.81;5032214;28;20128;-73
2021/06/05 02:00:36;;;;;;;18.70;12.77;;;;;;;12.05;nan;102163.16;5033134;28;20033;-73
2021/06/05 02:03:02;;;;;;;19.77;12.63;;;;;;;12.08;nan;102170.75;5034649;28;20044;-73
2021/06/05 02:05:29;;;;;;;14.73;11.30;;;;;;;12.09;nan;102169.72;5031928;28;20112;-73
2021/06/05 02:07:55;;;;;;;15.32;11.93;;;;;;;12.11;nan;102170.31;5033602;28;20507;-73
2021/06/05 02:10:24;;;;;;;16.00;12.77;;;;;;;12.13;nan;102170.91;5032283;28;20036;-73
2021/06/05 02:12:51;;;;;;;19.58;12.73;;;;;;;12.09;nan;102165.16;5032894;28;20064;-73
2021/06/05 02:15:19;;;;;;;16.88;12.30;;;;;;;12.04;nan;102156.16;5030378;28;20036;-73
2021/06/05 02:17:45;;;;;;;23.70;11.75;;;;;;;11.99;nan;102151.41;5018044;28;20578;-73
2021/06/05 02:20:16;;;;;;;18.90;12.23;;;;;;;11.92;nan;102153.38;5033440;28;20034;-73
2021/06/05 02:22:44;;;;;;;18.08;11.63;;;;;;;11.85;nan;102157.16;5032385;28;20033;-73
2021/06/05 02:25:14;;;;;;;20.30;12.07;;;;;;;11.80;nan;102158.63;5031720;28;20079;-73
2021/06/05 02:27:40;;;;;;;17.85;13.15;;;;;;;11.78;nan;102154.50;5021680;28;20179;-73
2021/06/05 02:30:13;;;;;;;16.88;12.57;;;;;;;11.76;nan;102149.34;5025680;28;20116;-73
2021/06/05 02:32:40;;;;;;;20.98;13.55;;;;;;;11.74;nan;102151.44;5019906;28;20114;-73
2021/06/05 02:35:10;;;;;;;22.08;13.57;;;;;;;11.73;nan;102144.44;5031011;28;20024;-73
2021/06/05 02:37:37;;;;;;;21.80;13.10;;;;;;;11.72;nan;102140.09;5030275;28;20029;-73
2021/06/05 02:40:10;;;;;;;17.70;12.02;;;;;;;11.68;nan;102144.28;5023528;28;20025;-73
2021/06/05 02:42:38;;;;;;;17.65;12.05;;;;;;;11.64;nan;102143.06;5032072;28;20030;-73
2021/06/05 02:45:08;;;;;;;14.63;10.70;;;;;;;11.57;nan;102142.31;5023968;28;20037;-73
2021/06/05 02:47:34;;;;;;;19.45;12.82;;;;;;;11.59;nan;102144.78;5031803;28;20071;-73
2021/06/05 02:50:02;;;;;;;20.65;12.73;;;;;;;11.57;nan;102139.63;5023120;28;20064;-73
2021/06/05 02:52:31;;;;;;;18.02;12.00;;;;;;;11.54;nan;102142.75;5032117;28;20137;-73
2021/06/05 02:55:11;;;;;;;16.30;11.60;;;;;;;11.50;nan;102146.94;5023568;28;20034;-73
2021/06/05 02:57:37;;;;;;;20.15;13.43;;;;;;;11.52;nan;102131.44;5030028;28;20025;-73
2021/06/05 03:00:12;;;;;;;19.17;13.45;;;;;;;11.53;nan;102137.63;5031388;28;20036;-73
2021/06/05 03:02:39;;;;;;;19.50;12.65;;;;;;;11.62;nan;102138.97;5031778;28;20036;-73
2021/06/05 03:05:06;;;;;;;17.67;13.82;;;;;;;11.66;nan;102135.59;5021128;28;20394;-73
2021/06/05 03:07:32;;;;;;;15.70;12.57;;;;;;;11.72;nan;102137.44;5032661;28;20425;-73
2021/06/05 03:09:58;;;;;;;17.58;12.65;;;;;;;11.77;nan;102142.94;5023604;28;20032;-73
2021/06/05 03:12:24;;;;;;;17.30;12.25;;;;;;;11.77;nan;102140.25;5033029;28;20025;-73
2021/06/05 03:14:50;;;;;;;15.82;12.00;;;;;;;11.80;nan;102141.72;5029450;28;21137;-73
2021/06/05 03:17:16;;;;;;;16.30;11.30;;;;;;;11.80;nan;102147.06;5023778;28;20100;-73
2021/06/05 03:19:41;;;;;;;16.45;12.23;;;;;;;11.79;nan;102137.38;5031582;28;20029;-73
2021/06/05 03:22:07;;;;;;;14.48;11.85;;;;;;;11.83;nan;102143.94;5012854;28;20063;-73
2021/06/05 03:24:32;;;;;;;16.92;12.65;;;;;;;11.88;nan;102140.59;5029763;28;20534;-73
2021/06/05 03:27:00;;;;;;;14.77;11.52;;;;;;;11.93;nan;102132.69;5031113;28;20036;-73
2021/06/05 03:29:26;;;;;;;16.08;11.95;;;;;;;12.00;nan;102128.06;5037813;28;20017;-73
2021/06/05 03:31:51;;;;;;;17.30;13.75;;;;;;;12.05;nan;102128.22;5033444;28;20090;-73
2021/06/05 03:34:17;;;;;;;24.20;14.13;;;;;;;12.18;nan;102129.94;5015972;28;20522;-73
2021/06/05 03:36:42;;;;;;;19.10;13.95;;;;;;;12.24;nan;102132.56;5021391;28;20106;-73
2021/06/05 03:39:08;;;;;;;17.75;13.38;;;;;;;12.33;nan;102133.06;5032498;28;20048;-73
2021/06/05 03:41:35;;;;;;;21.42;15.32;;;;;;;12.39;nan;102133.00;5031356;28;20108;-73
2021/06/05 03:44:01;;;;;;;19.98;14.30;;;;;;;12.58;nan;102135.66;5036239;28;20025;-74
2021/06/05 03:46:27;;;;;;;17.92;13.77;;;;;;;12.69;nan;102145.59;5029725;28;20405;-73
2021/06/05 03:48:53;;;;;;;17.67;14.35;;;;;;;12.74;nan;102144.91;5021121;28;20060;-74
2021/06/05 03:51:18;;;;;;;22.88;14.23;;;;;;;12.74;nan;102151.13;5024155;28;20093;-73
2021/06/05 03:53:44;;;;;;;17.17;12.93;;;;;;;12.77;nan;102150.69;5032611;28;20033;-74
2021/06/05 03:56:09;;;;;;;18.95;13.50;;;;;;;12.82;nan;102152.69;5030800;28;20033;-74
2021/06/05 03:58:39;;;;;;;19.63;15.15;;;;;;;11.98;nan;102151.66;5030467;28;20036;-73
2021/06/05 04:01:12;;;;;;;22.40;16.58;;;;;;;12.00;nan;102155.75;5031943;28;20029;-74
2021/06/05 04:03:37;;;;;;;22.52;15.18;;;;;;;12.25;nan;102152.19;5028459;28;20511;-74
2021/06/05 04:06:04;;;;;;;21.20;14.57;;;;;;;12.52;nan;102153.47;5016988;28;20037;-74
2021/06/05 04:08:29;;;;;;;21.77;15.55;;;;;;;12.72;nan;102155.91;5022340;28;20025;-74
2021/06/05 04:10:55;;;;;;;20.83;16.00;;;;;;;12.85;nan;102152.22;5025031;28;20033;-73
2021/06/05 04:13:20;;;;;;;16.80;13.75;;;;;;;13.03;nan;102152.16;5030297;28;20022;-73
2021/06/05 04:15:46;;;;;;;18.25;14.00;;;;;;;13.15;nan;102147.63;5016581;28;20083;-73
2021/06/05 04:18:25;;;;;;;18.85;13.70;;;;;;;13.28;nan;102146.59;5026568;28;20025;-74
2021/06/05 04:20:51;;;;;;;17.25;14.20;;;;;;;13.38;nan;102149.56;5033945;28;20028;-74
2021/06/05 04:23:17;;;;;;;19.20;13.57;;;;;;;13.47;nan;102150.88;5024417;28;20091;-74
2021/06/05 04:25:43;;;;;;;18.52;14.20;;;;;;;13.59;nan;102159.75;5033679;28;20021;-73
2021/06/05 04:28:12;;;;;;;21.45;15.15;;;;;;;13.71;nan;102140.91;5016011;28;20024;-74
2021/06/05 04:30:39;;;;;;;22.05;15.15;;;;;;;13.82;nan;102148.19;5032467;28;20677;-74
2021/06/05 04:33:06;;;;;;;20.20;15.52;;;;;;;13.98;nan;102138.53;5036186;28;20502;-74
2021/06/05 04:35:32;;;;;;;19.35;14.65;;;;;;;14.13;nan;102133.47;5035908;28;20037;-73
2021/06/05 04:37:58;;;;;;;17.88;14.60;;;;;;;14.27;nan;102138.59;5035002;28;20091;-74
2021/06/05 04:40:25;;;;;;;21.48;16.08;;;;;;;14.42;nan;102142.44;5027673;28;20033;-74
2021/06/05 04:42:50;;;;;;;26.27;17.67;;;;;;;14.48;nan;102148.75;5032798;28;20028;-74
2021/06/05 04:45:17;;;;;;;25.77;18.85;;;;;;;14.31;nan;102154.06;5031747;28;20422;-73
2021/06/05 04:47:43;;;;;;;26.23;17.80;;;;;;;14.55;nan;102154.03;5014110;28;20030;-74
2021/06/05 04:50:10;;;;;;;20.40;16.70;;;;;;;14.79;nan;102164.47;5031677;28;20051;-73
2021/06/05 04:52:36;;;;;;;21.10;15.43;;;;;;;14.92;nan;102152.56;5019301;28;20383;-73
2021/06/05 04:55:04;;;;;;;22.10;15.32;;;;;;;15.03;nan;102159.78;5030582;28;20032;-73
2021/06/05 04:57:29;;;;;;;22.77;16.38;;;;;;;15.14;nan;102160.78;5031918;28;20094;-74
2021/06/05 04:59:55;;;;;;;21.33;15.52;;;;;;;15.28;nan;102155.88;5031974;28;20223;-74
2021/06/05 05:02:20;;;;;;;19.38;15.27;;;;;;;15.50;nan;102158.66;5034830;28;20124;-73
2021/06/05 05:04:46;;;;;;;19.98;15.75;;;;;;;15.65;nan;102157.03;5033122;28;20029;-74
2021/06/05 05:07:13;;;;;;;19.80;15.45;;;;;;;15.73;nan;102158.50;5034780;28;20499;-74
2021/06/05 05:09:39;;;;;;;20.00;15.75;;;;;;;16.00;nan;102158.63;5028635;28;20048;-73
2021/06/05 05:12:05;;;;;;;19.05;14.75;;;;;;;16.16;nan;102154.22;5032598;28;20427;-73
2021/06/05 05:14:32;;;;;;;18.85;13.63;;;;;;;16.29;nan;102156.53;5031476;28;20051;-74
2021/06/05 05:16:58;;;;;;;19.25;14.18;;;;;;;16.53;nan;102157.91;5031596;28;20037;-74
2021/06/05 05:19:23;;;;;;;15.73;13.38;;;;;;;16.67;nan;102154.81;5013184;28;20118;-74
2021/06/05 05:21:49;;;;;;;17.65;13.25;;;;;;;16.78;nan;102156.59;5033189;28;20029;-74
2021/06/05 05:24:14;;;;;;;16.40;13.13;;;;;;;16.97;nan;102151.63;5027914;28;20112;-74
2021/06/05 05:26:40;;;;;;;13.25;11.48;;;;;;;17.09;nan;102149.56;5014453;28;20026;-74
2021/06/05 05:29:05;;;;;;;14.55;11.57;;;;;;;17.18;nan;102153.44;5019828;28;20453;-74
2021/06/05 05:31:31;;;;;;;13.90;11.15;;;;;;;17.34;nan;102146.25;5030963;28;20041;-73
2021/06/05 05:33:57;;;;;;;13.82;10.27;;;;;;;17.46;nan;102149.59;5012007;28;20037;-73
2021/06/05 05:36:26;;;;;;;14.98;11.43;;;;;;;17.62;nan;102148.63;5030905;28;20086;-74
2021/06/05 05:38:53;;;;;;;18.70;10.60;;;;;;;17.79;nan;102154.75;5031548;28;20022;-74
2021/06/05 05:41:21;;;;;;;13.38;10.55;;;;;;;17.96;nan;102151.84;5029083;28;20107;-74
2021/06/05 05:43:46;;;;;;;13.85;10.30;;;;;;;18.01;nan;102156.47;5019716;28;20032;-74
2021/06/05 05:46:12;;;;;;;12.73;8.90;;;;;;;18.23;nan;102151.69;5021798;28;20029;-74
2021/06/05 05:48:39;;;;;;;13.73;10.40;;;;;;;18.45;nan;102153.38;5033215;28;20471;-74
2021/06/05 05:51:08;;;;;;;10.27;9.23;;;;;;;18.48;nan;102152.84;5029762;28;20037;-74
2021/06/05 05:53:36;;;;;;;13.88;9.55;;;;;;;18.69;nan;102154.59;5029950;28;20087;-74
2021/06/05 05:56:02;;;;;;;12.00;9.25;;;;;;;18.79;nan;102154.59;5034369;28;20082;-73
2021/06/05 05:58:28;;;;;;;12.32;9.45;;;;;;;19.11;nan;102153.53;5033202;28;20737;-73
2021/06/05 06:00:54;;;;;;;13.18;10.00;;;;;;;19.25;nan;102160.06;5029289;28;20034;-73
2021/06/05 06:03:21;;;;;;;11.30;8.80;;;;;;;19.44;nan;102160.34;5034501;28;20029;-73
2021/06/05 06:05:47;;;;;;;11.77;9.13;;;;;;;19.50;nan;102157.34;5026781;28;20017;-73
2021/06/05 06:08:18;;;;;;;10.10;8.98;;;;;;;19.75;nan;102152.97;5019540;28;20029;-73
2021/06/05 06:10:44;;;;;;;10.57;8.52;;;;;;;19.87;nan;102156.19;5037986;28;20037;-73
2021/06/05 06:13:10;;;;;;;9.90;8.93;;;;;;;19.95;nan;102160.28;5035633;28;20029;-73
2021/06/05 06:15:37;;;;;;;14.60;9.77;;;;;;;20.12;nan;102145.25;5035571;28;20029;-74
2021/06/05 06:18:04;;;;;;;10.15;8.05;;;;;;;20.26;nan;102152.78;5038289;28;20029;-73
2021/06/05 06:20:39;;;;;;;8.93;7.57;;;;;;;20.37;nan;102152.47;5035394;28;20025;-73
2021/06/05 06:23:04;;;;;;;10.50;7.53;;;;;;;20.62;nan;102146.09;5037372;28;20072;-73
2021/06/05 06:25:33;;;;;;;9.38;8.38;;;;;;;20.77;nan;102148.72;5035571;28;20033;-73
2021/06/05 06:27:59;;;;;;;9.25;7.57;;;;;;;20.85;nan;102154.69;5034977;28;20112;-72
2021/06/05 06:30:32;;;;;;;9.77;8.77;;;;;;;20.85;nan;102149.25;5023420;28;20300;-72
2021/06/05 06:32:58;;;;;;;10.00;8.82;;;;;;;21.00;nan;102141.75;5035326;28;20487;-72
2021/06/05 06:35:26;;;;;;;8.00;7.20;;;;;;;20.96;nan;102139.88;5020356;28;20048;-72
2021/06/05 06:37:52;;;;;;;10.45;7.78;;;;;;;21.19;nan;102143.81;5035470;28;20391;-72
2021/06/05 06:40:24;;;;;;;10.20;8.05;;;;;;;21.25;nan;102148.94;5034545;28;20024;-73
2021/06/05 06:42:50;;;;;;;11.20;8.50;;;;;;;21.18;nan;102139.44;5022999;28;20032;-73
2021/06/05 06:45:16;;;;;;;9.10;8.15;;;;;;;21.12;nan;102139.47;5035955;28;20021;-74
2021/06/05 06:47:42;;;;;;;9.45;8.00;;;;;;;21.49;nan;102149.00;5037422;28;20028;-74
2021/06/05 06:50:10;;;;;;;8.32;7.35;;;;;;;21.57;nan;102144.84;5039770;28;20032;-74
2021/06/05 06:52:36;;;;;;;8.27;7.47;;;;;;;21.83;nan;102138.00;5029609;28;20048;-73
2021/06/05 06:55:01;;;;;;;9.52;8.32;;;;;;;22.12;nan;102145.34;5017171;28;20513;-74
2021/06/05 06:57:27;;;;;;;11.10;7.65;;;;;;;21.91;nan;102140.13;5031532;28;20144;-74
2021/06/05 06:59:53;;;;;;;7.30;6.43;;;;;;;22.10;nan;102136.66;5035063;28;20127;-74
2021/06/05 07:02:18;;;;;;;8.32;5.97;;;;;;;22.17;nan;102146.09;5031689;28;20029;-74
2021/06/05 07:04:44;;;;;;;7.75;6.20;;;;;;;22.29;nan;102141.03;5029703;28;21050;-74
2021/06/05 07:07:09;;;;;;;5.35;4.63;;;;;;;22.27;nan;102143.25;5032419;28;20029;-74
2021/06/05 07:09:35;;;;;;;7.45;4.55;;;;;;;22.42;nan;102144.94;5030879;28;20024;-74
2021/06/05 07:12:02;;;;;;;8.35;6.57;;;;;;;22.49;nan;102139.94;5028366;28;20487;-74
2021/06/05 07:14:28;;;;;;;7.43;5.93;;;;;;;22.56;nan;102134.91;5039254;28;20552;-74
2021/06/05 07:16:54;;;;;;;8.57;6.22;;;;;;;22.81;nan;102141.13;5036205;28;20029;-74
2021/06/05 07:19:21;;;;;;;9.32;6.20;;;;;;;22.72;nan;102137.41;5028834;28;20057;-74
2021/06/05 07:21:46;;;;;;;10.85;6.82;;;;;;;22.88;nan;102138.84;5033628;28;20528;-74
2021/06/05 07:24:12;;;;;;;7.45;5.75;;;;;;;22.82;nan;102135.38;5027994;28;20029;-74
2021/06/05 07:26:39;;;;;;;8.25;6.47;;;;;;;22.74;nan;102130.53;5031246;28;20455;-74
2021/06/05 07:29:08;;;;;;;10.13;6.40;;;;;;;22.92;nan;102128.94;5015035;28;20135;-74
2021/06/05 07:31:45;;;;;;;8.23;6.72;;;;;;;23.08;nan;102133.03;5028280;28;20025;-74
2021/06/05 07:34:12;;;;;;;10.70;6.40;;;;;;;23.13;nan;102126.69;5033038;28;20535;-74
2021/06/05 07:36:41;;;;;;;11.35;6.43;;;;;;;23.18;nan;102118.41;5033413;28;20028;-74
2021/06/05 07:39:09;;;;;;;6.00;5.38;;;;;;;23.43;nan;102120.69;5037442;28;20033;-74
2021/06/05 07:41:35;;;;;;;8.93;6.38;;;;;;;23.71;nan;102128.97;5031145;28;20025;-74
2021/06/05 07:44:02;;;;;;;7.97;6.28;;;;;;;23.81;nan;102126.00;5034158;28;20044;-74
2021/06/05 07:46:28;;;;;;;8.02;5.70;;;;;;;23.86;nan;102125.88;5035012;28;20727;-74
2021/06/05 07:48:53;;;;;;;6.07;5.20;;;;;;;24.12;nan;102128.94;5034453;28;20027;-74
2021/06/05 07:51:20;;;;;;;5.65;5.05;;;;;;;24.32;nan;102130.44;5035074;28;20037;-73
2021/06/05 07:53:47;;;;;;;5.75;4.40;;;;;;;24.41;nan;102131.34;5029209;28;20748;-74
2021/06/05 07:56:13;;;;;;;6.03;4.63;;;;;;;24.45;nan;102123.34;5029880;28;20502;-74
2021/06/05 07:58:39;;;;;;;6.35;5.10;;;;;;;24.81;nan;102118.63;5015905;28;20071;-74
2021/06/05 08:01:05;;;;;;;9.40;5.25;;;;;;;24.99;nan;102122.31;5020334;28;20742;-74
2021/06/05 08:03:31;;;;;;;5.63;4.50;;;;;;;25.09;nan;102124.81;5018159;28;20038;-74
2021/06/05 08:05:56;;;;;;;4.90;4.38;;;;;;;25.11;nan;102119.81;5032294;28;20570;-74
2021/06/05 08:08:22;;;;;;;8.30;5.43;;;;;;;25.05;nan;102125.75;5019207;28;20021;-74
2021/06/05 08:10:48;;;;;;;6.95;4.68;;;;;;;25.25;nan;102117.00;5036215;28;20087;-74
2021/06/05 08:13:14;;;;;;;8.75;4.72;;;;;;;25.36;nan;102128.53;5033772;28;20491;-74
2021/06/05 08:15:46;;;;;;;5.32;4.60;;;;;;;25.15;nan;102123.56;5022177;28;20035;-74
2021/06/05 08:18:13;;;;;;;5.57;4.60;;;;;;;25.59;nan;102117.16;5030903;28;20075;-74
2021/06/05 08:20:44;;;;;;;5.68;5.07;;;;;;;25.82;nan;102111.63;5035058;28;20036;-75
2021/06/05 08:23:10;;;;;;;6.22;4.97;;;;;;;25.86;nan;102101.66;5037281;28;20103;-74
2021/06/05 08:25:37;;;;;;;5.55;4.75;;;;;;;25.88;nan;102110.38;5029968;28;20037;-75
2021/06/05 08:28:05;;;;;;;10.63;5.35;;;;;;;26.29;nan;102106.41;5032437;28;20051;-74
2021/06/05 08:30:39;;;;;;;7.05;4.50;;;;;;;26.32;nan;102103.00;5018327;28;20021;-74
2021/06/05 08:33:05;;;;;;;7.18;5.25;;;;;;;26.39;nan;102095.13;5030694;28;20617;-74
2021/06/05 08:35:30;;;;;;;7.60;4.80;;;;;;;26.41;nan;102087.38;5026690;28;20543;-74
2021/06/05 08:37:56;;;;;;;7.05;4.93;;;;;;;26.51;nan;102089.78;5030548;28;20111;-74
2021/06/05 08:40:32;;;;;;;5.35;4.85;;;;;;;26.34;nan;102089.75;5030807;28;20025;-75
2021/06/05 08:42:58;;;;;;;5.57;4.65;;;;;;;26.16;nan;102087.00;5030524;28;20024;-75
2021/06/05 08:45:29;;;;;;;4.50;4.07;;;;;;;26.56;nan;102086.88;5031072;28;20036;-74
2021/06/05 08:47:56;;;;;;;4.57;3.92;;;;;;;26.63;nan;102078.16;5030948;28;20864;-75
2021/06/05 08:50:28;;;;;;;5.47;4.22;;;;;;;26.67;nan;102085.41;5032789;28;20082;-75
2021/06/05 08:53:07;;;;;;;3.97;3.28;;;;;;;26.34;nan;102087.00;5032114;28;20615;-75
2021/06/05 08:55:39;;;;;;;4.82;3.90;;;;;;;26.69;nan;102085.91;5030268;28;20093;-73
2021/06/05 08:58:04;;;;;;;5.00;4.03;;;;;;;26.49;nan;102081.06;5032533;28;20094;-74
2021/06/05 09:00:50;;;;;;;6.00;4.45;;;;;;;26.83;nan;102087.66;5030237;28;20025;-74
2021/06/05 09:03:19;;;;;;;5.28;4.10;;;;;;;26.86;nan;102087.81;5028599;28;20056;-74
2021/06/05 09:06:09;;;;;;;7.57;4.00;;;;;;;26.41;nan;102090.94;5029467;28;20033;-73
2021/06/05 09:08:35;;;;;;;7.38;3.75;;;;;;;26.95;nan;102085.06;5014994;28;20415;-73
2021/06/05 09:11:03;;;;;;;4.13;3.72;;;;;;;27.11;nan;102077.94;5032834;28;20057;-74
2021/06/05 09:13:28;;;;;;;7.25;4.28;;;;;;;27.28;nan;102077.84;5034851;28;20395;-73
2021/06/05 09:16:16;;;;;;;5.60;3.97;;;;;;;27.31;nan;102081.91;5034355;28;20044;-74
2021/06/05 09:19:00;;;;;;;4.97;3.90;;;;;;;27.03;nan;102084.25;5033877;28;20031;-73
2021/06/05 09:21:32;;;;;;;5.97;3.83;;;;;;;27.24;nan;102079.66;5034854;28;20025;-73
2021/06/05 09:24:16;;;;;;;5.28;3.63;;;;;;;26.96;nan;102082.00;5037222;28;20032;-74
2021/06/05 09:27:00;;;;;;;4.17;3.77;;;;;;;27.14;nan;102077.28;5019983;28;20116;-73
2021/06/05 09:29:26;;;;;;;5.63;3.50;;;;;;;27.01;nan;102075.53;5028865;28;20025;-73
2021/06/05 09:32:08;;;;;;;6.70;3.33;;;;;;;27.31;nan;102077.22;5032457;28;20021;-73
2021/06/05 09:34:50;;;;;;;6.40;3.75;;;;;;;27.65;nan;102072.72;5022412;28;20501;-73
2021/06/05 09:37:44;;;;;;;8.13;3.78;;;;;;;27.49;nan;102077.97;5039995;28;20498;-73
2021/06/05 09:40:17;;;;;;;4.25;3.60;;;;;;;27.50;nan;102079.56;5023957;28;20495;-73
2021/06/05 09:42:46;;;;;;;6.88;3.97;;;;;;;27.42;nan;102085.09;5038993;28;20024;-73
2021/06/05 09:45:40;;;;;;;6.40;4.22;;;;;;;27.72;nan;102086.78;5025765;28;20025;-73
2021/06/05 09:48:30;;;;;;;5.40;4.03;;;;;;;27.73;nan;102090.34;5042682;28;20033;-73
2021/06/05 09:50:59;;;;;;;5.93;3.63;;;;;;;27.75;nan;102088.84;5042875;28;20484;-73
2021/06/05 09:53:28;;;;;;;4.68;3.67;;;;;;;27.65;nan;102089.25;5030670;28;20040;-73
2021/06/05 09:55:53;;;;;;;4.28;3.85;;;;;;;27.56;nan;102081.00;5038616;28;20025;-73
2021/06/05 09:58:39;;;;;;;5.53;3.80;;;;;;;27.51;nan;102083.13;5028697;28;20047;-74
2021/06/05 10:01:21;;;;;;;6.07;3.67;;;;;;;27.55;nan;102081.31;5044077;28;20029;-74
2021/06/05 10:03:49;;;;;;;5.38;3.63;;;;;;;27.74;nan;102081.75;5028370;28;20043;-73
2021/06/05 10:06:21;;;;;;;6.20;4.05;;;;;;;27.89;nan;102077.59;5045122;28;20071;-74
2021/06/05 10:08:47;;;;;;;6.32;3.80;;;;;;;28.15;nan;102085.69;5041753;28;20036;-73
2021/06/05 10:11:32;;;;;;;9.95;6.30;;;;;;;28.17;nan;102075.13;5030683;28;20024;-74
2021/06/05 10:14:20;;;;;;;5.25;4.10;;;;;;;27.93;nan;102067.53;5050842;28;20033;-73
2021/06/05 10:17:40;;;;;;;7.03;5.22;;;;;;;28.03;nan;102066.34;5036665;28;20063;-74
2021/06/05 10:20:25;;;;;;;4.68;4.07;;;;;;;27.94;nan;102058.94;4950781;28;20042;-73
2021/06/05 10:22:56;;;;;;;12.77;6.35;;;;;;;28.09;nan;102070.50;5036322;28;20044;-74
2021/06/05 10:25:37;;;;;;;19.13;10.57;;;;;;;28.54;nan;102067.88;5021109;28;20523;-74
2021/06/05 10:28:25;;;;;;;5.97;4.82;;;;;;;28.24;nan;102072.66;5043014;28;20036;-74
2021/06/05 10:31:03;;;;;;;5.55;4.20;;;;;;;27.67;nan;102074.00;5014573;28;20135;-74
2021/06/05 10:33:47;;;;;;;10.15;5.50;;;;;;;28.25;nan;102064.09;5036234;28;20037;-73
2021/06/05 10:36:48;;;;;;;5.73;5.07;;;;;;;27.77;nan;102060.97;5034950;28;20024;-73
2021/06/05 10:39:25;;;;;;;14.85;9.18;;;;;;;28.19;nan;102062.66;5035813;28;20029;-73
2021/06/05 10:41:55;;;;;;;15.63;10.10;;;;;;;28.41;nan;102039.47;5037274;28;20136;-73
2021/06/05 10:44:23;;;;;;;15.75;10.35;;;;;;;28.32;nan;102059.97;5033335;28;20631;-74
2021/06/05 10:47:00;;;;;;;9.07;5.60;;;;;;;28.18;nan;102063.78;5038295;28;20506;-73
2021/06/05 10:49:38;;;;;;;8.88;5.35;;;;;;;28.04;nan;102065.19;5035151;28;20067;-74
2021/06/05 10:52:41;;;;;;;6.18;4.57;;;;;;;27.98;nan;102059.88;5039250;28;20064;-74
2021/06/05 10:55:32;;;;;;;8.15;4.85;;;;;;;28.19;nan;102056.34;5037358;28;20506;-73
2021/06/05 10:58:13;;;;;;;7.15;4.75;;;;;;;27.96;nan;102056.66;5037498;28;20484;-74
2021/06/05 11:00:41;;;;;;;9.40;6.60;;;;;;;28.69;nan;102049.91;5033376;28;20035;-74
2021/06/05 11:03:09;;;;;;;66.18;37.08;;;;;;;28.85;nan;102045.34;5040631;28;20021;-73
2021/06/05 11:05:41;;;;;;;38.38;18.52;;;;;;;29.08;nan;102048.53;5040049;28;20436;-74
2021/06/05 11:08:16;;;;;;;25.90;14.23;;;;;;;29.33;nan;102049.38;5030165;28;20029;-73
2021/06/05 11:10:52;;;;;;;37.60;20.60;;;;;;;28.90;nan;102050.69;5040626;28;20502;-74
2021/06/05 11:13:36;;;;;;;15.65;8.43;;;;;;;29.29;nan;102054.78;5037840;28;20110;-74
2021/06/05 11:16:13;;;;;;;6.65;5.40;;;;;;;29.58;nan;102047.44;5041672;28;20036;-73
2021/06/05 11:19:08;;;;;;;6.10;4.97;;;;;;;29.82;nan;102047.44;5041491;28;20045;-74
2021/06/05 11:21:45;;;;;;;10.35;5.93;;;;;;;29.68;nan;102046.97;5039639;28;20025;-73
2021/06/05 11:24:23;;;;;;;4.93;4.43;;;;;;;29.91;nan;102033.47;5037240;28;20112;-74
2021/06/05 11:26:59;;;;;;;5.38;4.50;;;;;;;30.00;nan;102031.41;5040511;28;20043;-73
2021/06/05 11:29:28;;;;;;;7.70;4.70;;;;;;;30.13;nan;102030.22;5039223;28;20399;-74
2021/06/05 11:31:57;;;;;;;7.85;5.07;;;;;;;29.95;nan;102028.84;5041199;28;20028;-74
2021/06/05 11:34:29;;;;;;;7.97;4.40;;;;;;;29.78;nan;102035.44;5027307;28;20028;-74
2021/06/05 11:37:14;;;;;;;5.55;4.85;;;;;;;29.11;nan;102023.84;5042007;28;20426;-74
2021/06/05 11:39:58;;;;;;;7.30;4.63;;;;;;;29.90;nan;102027.16;5022623;28;20040;-74
2021/06/05 11:42:24;;;;;;;7.72;3.97;;;;;;;29.69;nan;102026.50;5029467;28;20487;-74
2021/06/05 11:44:55;;;;;;;4.63;3.85;;;;;;;29.53;nan;102012.59;5032580;28;20029;-74
2021/06/05 11:47:21;;;;;;;7.03;4.32;;;;;;;30.02;nan;102018.84;5037709;28;20021;-74
2021/06/05 11:49:54;;;;;;;11.10;8.27;;;;;;;30.27;nan;102018.75;5036879;28;20028;-74